Time;durP1;ratioP1;P1;durP2;ratioP2;P2;SDS_P1;SDS_P2;PMS_P1;PMS_P2;Temp;Humidity;BMP_temperature;BMP_pressure;BME280_temperature;BME280_humidity;BME280_pressure;Samples;Min_cycle;Max_cycle;Signal;HPM_P1;HPM_P2
2022/05/23 00:01:47;;;;;;;;;7.50;7.00;;;;;18.78;61.73;99646.50;4974416;28;45354;-71
2022/05/23 00:04:13;;;;;;;;;8.00;6.50;;;;;18.78;61.28;99637.69;4974301;28;45323;-70
2022/05/23 00:06:39;;;;;;;;;8.00;8.00;;;;;18.88;61.12;99630.53;4972274;28;46107;-71
2022/05/23 00:09:05;;;;;;;;;7.50;7.50;;;;;18.91;60.99;99622.25;4974045;28;45357;-71
2022/05/23 00:11:31;;;;;;;;;8.25;7.25;;;;;18.94;60.81;99624.66;4975657;28;45330;-71
2022/05/23 00:13:56;;;;;;;;;7.00;6.25;;;;;19.01;60.59;99629.44;4975863;28;45670;-71
2022/05/23 00:16:25;;;;;;;;;7.50;6.00;;;;;19.05;60.21;99645.00;4974618;28;46241;-74
2022/05/23 00:18:51;;;;;;;;;6.75;6.75;;;;;19.07;60.02;99648.38;4974957;28;45279;-70
2022/05/23 00:21:18;;;;;;;;;6.00;6.00;;;;;19.15;59.94;99644.19;4974810;28;45150;-70
2022/05/23 00:23:44;;;;;;;;;4.00;4.00;;;;;19.09;59.94;99617.13;4973459;28;45897;-71
2022/05/23 00:26:16;;;;;;;;;6.00;6.00;;;;;19.12;59.78;99618.66;4973845;28;46167;-71
2022/05/23 00:28:41;;;;;;;;;6.00;6.00;;;;;19.09;59.74;99606.47;4972783;28;45495;-72
2022/05/23 00:31:07;;;;;;;;;5.50;5.50;;;;;19.08;59.79;99606.59;4973734;28;45414;-71
2022/05/23 00:36:17;;;;;;;;;5.75;4.75;;;;;19.18;59.45;99606.59;4973346;28;45796;-70
2022/05/23 00:38:42;;;;;;;;;8.00;8.00;;;;;19.20;59.65;99601.97;4973477;28;45335;-71
2022/05/23 00:44:06;;;;;;;;;8.00;6.25;;;;;19.24;59.40;99598.03;4973602;28;45418;-72
2022/05/23 00:46:32;;;;;;;;;4.75;4.75;;;;;19.23;59.73;99593.69;4973603;28;46287;-71
2022/05/23 00:48:59;;;;;;;;;4.75;4.75;;;;;19.25;59.12;99584.53;4973654;28;45357;-71
2022/05/23 00:51:25;;;;;;;;;7.50;7.50;;;;;19.26;59.22;99582.72;4974523;28;45224;-70
2022/05/23 00:53:54;;;;;;;;;5.00;5.00;;;;;19.25;59.22;99570.38;4972499;28;45526;-71
2022/05/23 00:56:23;;;;;;;;;4.75;4.75;;;;;19.29;58.85;99570.94;4972656;28;46224;-70
2022/05/23 00:58:55;;;;;;;;;7.00;5.00;;;;;19.29;59.06;99573.59;4973605;27;45294;-72
2022/05/23 01:01:27;;;;;;;;;5.50;5.50;;;;;19.29;58.96;99577.13;4971813;28;45527;-73
2022/05/23 01:03:54;;;;;;;;;5.00;5.00;;;;;19.25;59.03;99563.22;4971218;28;45642;-69
2022/05/23 01:06:19;;;;;;;;;4.75;4.75;;;;;19.31;59.06;99572.47;4973165;28;46100;-71
2022/05/23 01:08:46;;;;;;;;;4.00;4.00;;;;;19.31;58.77;99582.28;4973378;28;45512;-71
2022/05/23 01:11:12;;;;;;;;;6.25;4.25;;;;;19.31;58.94;99563.63;4974097;28;45350;-71
2022/05/23 01:13:38;;;;;;;;;4.25;4.25;;;;;19.27;58.92;99547.91;4974179;28;45270;-71
2022/05/23 01:16:04;;;;;;;;;5.25;5.00;;;;;19.24;59.03;99537.53;4973591;28;45223;-70
2022/05/23 01:18:31;;;;;;;;;5.00;5.00;;;;;19.18;58.62;99523.97;4973306;28;45328;-70
2022/05/23 01:20:59;;;;;;;;;4.25;4.25;;;;;19.15;58.84;99526.91;4974060;28;45319;-75
2022/05/23 01:23:42;;;;;;;;;7.50;5.00;;;;;19.10;59.55;99519.34;4975416;28;45493;-74
2022/05/23 01:26:08;;;;;;;;;6.25;5.25;;;;;19.02;59.24;99506.72;4975509;28;46001;-71
2022/05/23 01:28:37;;;;;;;;;5.00;5.00;;;;;19.01;59.79;99497.03;4976070;28;45438;-71
2022/05/23 01:31:04;;;;;;;;;4.25;4.25;;;;;18.95;60.21;99486.91;4973227;28;45301;-70
2022/05/23 01:33:29;;;;;;;;;6.00;6.00;;;;;18.86;60.33;99483.31;4974036;28;45544;-70
2022/05/23 01:35:57;;;;;;;;;6.50;6.00;;;;;18.79;60.33;99482.19;4970754;28;47331;-72
2022/05/23 01:38:23;;;;;;;;;6.00;6.00;;;;;18.72;60.54;99478.41;4971640;28;45484;-70
2022/05/23 01:40:48;;;;;;;;;7.00;5.75;;;;;18.67;60.47;99477.00;4972517;28;45463;-69
2022/05/23 01:43:15;;;;;;;;;7.50;6.00;;;;;18.67;60.67;99476.16;4972756;28;45239;-72
2022/05/23 01:45:41;;;;;;;;;6.75;5.50;;;;;18.65;61.02;99465.66;4973139;28;46215;-69
2022/05/23 01:48:07;;;;;;;;;4.50;4.50;;;;;18.63;60.81;99462.31;4973290;28;45299;-72
2022/05/23 01:50:32;;;;;;;;;9.00;6.75;;;;;18.58;61.51;99440.59;4973678;28;45444;-72
2022/05/23 01:52:58;;;;;;;;;8.00;6.75;;;;;18.51;61.98;99429.63;4975031;28;45309;-71
2022/05/23 01:55:23;;;;;;;;;5.00;5.00;;;;;18.46;61.75;99428.38;4972645;28;45321;-74
2022/05/23 01:57:49;;;;;;;;;6.00;6.00;;;;;18.40;62.26;99432.44;4972875;28;45256;-72
2022/05/23 02:03:00;;;;;;;;;7.25;7.25;;;;;18.31;62.45;99434.13;4973555;28;45336;-73
2022/05/23 02:05:27;;;;;;;;;7.50;7.50;;;;;18.29;62.57;99437.91;4976817;28;46100;-72
2022/05/23 02:07:53;;;;;;;;;7.25;7.00;;;;;18.25;62.85;99424.03;4975047;28;45394;-73
2022/05/23 02:10:19;;;;;;;;;8.00;6.50;;;;;18.23;63.03;99426.84;4969808;28;45559;-71
2022/05/23 02:12:45;;;;;;;;;6.50;5.75;;;;;18.17;63.13;99410.59;4971794;28;45545;-71
2022/05/23 02:15:10;;;;;;;;;10.00;8.25;;;;;18.13;63.17;99410.03;4973834;28;45390;-72
2022/05/23 02:17:36;;;;;;;;;7.50;7.25;;;;;18.09;63.69;99425.44;4973381;28;45395;-72
2022/05/23 02:20:02;;;;;;;;;8.25;8.25;;;;;18.05;63.86;99432.00;4972128;28;45419;-71
2022/05/23 02:22:28;;;;;;;;;10.25;7.00;;;;;18.02;63.54;99434.94;4973044;28;45418;-70
2022/05/23 02:24:53;;;;;;;;;9.25;7.00;;;;;18.01;63.76;99438.59;4972376;28;46071;-72
2022/05/23 02:27:19;;;;;;;;;8.00;7.00;;;;;18.01;64.00;99440.38;4972657;28;45158;-71
2022/05/23 02:29:44;;;;;;;;;6.50;6.50;;;;;17.95;63.83;99445.25;4973941;28;45189;-74
2022/05/23 02:32:10;;;;;;;;;8.25;8.00;;;;;17.97;64.06;99447.78;4976867;28;45395;-74
2022/05/23 02:34:36;;;;;;;;;7.25;7.25;;;;;17.96;64.08;99448.78;4974703;28;48057;-71
2022/05/23 02:37:02;;;;;;;;;10.00;7.25;;;;;17.97;64.00;99445.13;4975065;28;45862;-70
2022/05/23 02:39:28;;;;;;;;;7.75;7.75;;;;;17.94;64.15;99442.75;4973837;28;45379;-72
2022/05/23 02:41:54;;;;;;;;;9.25;9.25;;;;;17.92;64.34;99450.84;4976350;28;45475;-72
2022/05/23 02:44:19;;;;;;;;;8.00;8.00;;;;;17.90;64.29;99446.66;4978216;28;45474;-72
2022/05/23 02:46:45;;;;;;;;;9.00;9.00;;;;;17.94;64.23;99448.06;4975267;28;45324;-73
2022/05/23 02:49:11;;;;;;;;;9.00;8.50;;;;;17.91;64.35;99443.84;4975242;28;46218;-70
2022/05/23 02:51:36;;;;;;;;;8.75;8.75;;;;;17.92;64.52;99452.69;4975598;28;45535;-73
2022/05/23 02:54:03;;;;;;;;;8.25;7.75;;;;;17.93;64.54;99449.03;4974822;28;45310;-71
2022/05/23 02:56:28;;;;;;;;;9.00;7.50;;;;;17.92;64.39;99442.03;4975837;28;45308;-71
2022/05/23 02:58:53;;;;;;;;;7.00;7.00;;;;;17.91;64.33;99433.22;4976064;28;45205;-70
2022/05/23 03:01:19;;;;;;;;;8.00;6.00;;;;;17.91;64.23;99435.03;4975675;28;45507;-71
2022/05/23 03:03:45;;;;;;;;;7.75;7.75;;;;;17.91;64.29;99443.03;4976241;28;46279;-71
2022/05/23 03:06:10;;;;;;;;;8.75;8.25;;;;;17.89;64.34;99440.47;4975419;28;45233;-71
2022/05/23 03:08:37;;;;;;;;;7.00;7.00;;;;;17.90;64.35;99436.84;4974968;28;45197;-70
2022/05/23 03:11:04;;;;;;;;;6.75;6.25;;;;;17.95;64.42;99437.28;4974683;28;45420;-71
2022/05/23 03:13:30;;;;;;;;;11.00;10.25;;;;;18.01;64.39;99453.69;4974500;28;45324;-71
2022/05/23 03:15:56;;;;;;;;;7.50;7.00;;;;;18.05;64.15;99461.28;4974945;28;45405;-71
2022/05/23 03:18:24;;;;;;;;;7.00;7.00;;;;;18.14;63.89;99472.94;4975556;28;45365;-73
2022/05/23 03:26:58;;;;;;;;;7.00;7.00;;;;;18.22;64.02;99473.06;4972821;28;45194;-71
2022/05/23 03:27:00;;;;;;;;;6.00;6.00;;;;;18.17;63.82;99437.19;4974157;28;45501;-71
2022/05/23 03:29:30;;;;;;;;;8.25;8.25;;;;;18.38;63.51;99445.88;4974692;28;45248;-73
2022/05/23 03:31:55;;;;;;;;;6.25;6.25;;;;;18.42;63.08;99442.94;4974605;28;45527;-72
2022/05/23 03:34:20;;;;;;;;;7.00;7.00;;;;;18.42;62.99;99434.97;4974264;28;46049;-71
2022/05/23 03:36:46;;;;;;;;;6.00;6.00;;;;;18.42;63.02;99418.97;4975097;28;45346;-72
2022/05/23 03:39:11;;;;;;;;;7.75;6.50;;;;;18.37;63.17;99406.13;4976030;28;45396;-71
2022/05/23 03:41:38;;;;;;;;;8.00;8.00;;;;;18.45;63.29;99402.72;4974562;28;45363;-72
2022/05/23 03:44:05;;;;;;;;;7.50;7.50;;;;;18.45;63.13;99386.75;4976042;28;45359;-70
2022/05/23 03:46:30;;;;;;;;;7.25;7.25;;;;;18.40;63.06;99363.22;4977788;28;45366;-71
2022/05/23 03:48:56;;;;;;;;;9.25;7.00;;;;;18.49;63.29;99383.69;4977144;28;45186;-71
2022/05/23 03:51:21;;;;;;;;;7.00;7.00;;;;;18.50;63.74;99396.00;4978405;28;45224;-71
2022/05/23 03:53:46;;;;;;;;;8.25;7.00;;;;;18.50;64.00;99395.16;4974635;28;45389;-73
2022/05/23 03:56:12;;;;;;;;;6.75;6.75;;;;;18.48;64.14;99383.81;4979640;28;45310;-70
2022/05/23 03:58:38;;;;;;;;;7.50;7.50;;;;;18.27;63.88;99349.38;4979174;28;45449;-70
2022/05/23 04:01:10;;;;;;;;;10.00;8.25;;;;;18.39;64.36;99394.31;4977722;28;45339;-71
2022/05/23 04:03:35;;;;;;;;;11.25;9.00;;;;;18.32;64.28;99398.53;4976864;28;46195;-73
2022/05/23 04:06:01;;;;;;;;;10.50;8.25;;;;;18.22;64.45;99403.03;4974597;28;45148;-72
2022/05/23 04:08:26;;;;;;;;;5.25;5.25;;;;;18.21;64.41;99391.56;4973565;28;45286;-71
2022/05/23 04:10:52;;;;;;;;;10.25;9.00;;;;;18.20;64.61;99386.34;4975361;28;45386;-72
2022/05/23 04:13:17;;;;;;;;;9.25;9.25;;;;;18.15;64.57;99368.16;4975019;28;45449;-70
2022/05/23 04:15:43;;;;;;;;;10.25;8.50;;;;;18.08;64.75;99348.41;4974135;28;45307;-70
2022/05/23 04:18:08;;;;;;;;;10.50;10.50;;;;;18.09;65.15;99344.78;4974288;28;45412;-71
2022/05/23 04:20:34;;;;;;;;;9.50;8.00;;;;;18.13;65.19;99358.63;4974529;28;45901;-71
2022/05/23 04:22:59;;;;;;;;;10.25;10.25;;;;;18.11;65.24;99353.47;4973729;28;46362;-71
2022/05/23 04:25:24;;;;;;;;;7.25;7.25;;;;;18.15;65.06;99352.19;4973525;28;45482;-71
2022/05/23 04:27:50;;;;;;;;;7.00;7.00;;;;;18.16;65.17;99337.91;4973061;28;45464;-71
2022/05/23 04:30:15;;;;;;;;;9.00;7.75;;;;;18.22;65.20;99340.00;4975649;28;45353;-72
2022/05/23 04:35:25;;;;;;;;;7.50;7.50;;;;;18.33;65.92;99309.72;4975702;28;45383;-72
2022/05/23 04:37:53;;;;;;;;;7.50;7.50;;;;;18.35;67.02;99306.91;4976359;28;45324;-71
2022/05/23 04:40:30;;;;;;;;;8.00;7.75;;;;;18.40;67.49;99296.69;4977717;28;45576;-70
2022/05/23 04:42:55;;;;;;;;;8.75;8.75;;;;;18.36;67.32;99269.50;4975133;28;46159;-71
2022/05/23 04:45:22;;;;;;;;;12.25;11.00;;;;;18.41;67.83;99271.75;4974062;28;45331;-73
2022/05/23 04:50:31;;;;;;;;;7.50;7.00;;;;;18.48;67.88;99296.78;4975851;28;45196;-72
2022/05/23 04:52:57;;;;;;;;;8.00;8.00;;;;;18.51;67.56;99333.78;4974813;28;45363;-73
2022/05/23 04:55:24;;;;;;;;;7.00;7.00;;;;;18.43;67.66;99324.81;4977465;28;45360;-71
2022/05/23 04:57:49;;;;;;;;;9.25;9.00;;;;;18.51;68.36;99317.81;4974620;28;45339;-75
2022/05/23 05:00:20;;;;;;;;;9.00;9.00;;;;;18.57;68.35;99315.56;4974918;28;45263;-72
2022/05/23 05:02:47;;;;;;;;;9.00;8.00;;;;;18.66;68.27;99325.34;4974153;28;46083;-70
2022/05/23 05:05:15;;;;;;;;;8.00;8.00;;;;;18.76;67.68;99320.81;4972766;28;45424;-71
2022/05/23 05:07:41;;;;;;;;;7.75;6.50;;;;;18.77;67.68;99301.19;4973572;28;45503;-72
2022/05/23 05:10:07;;;;;;;;;6.25;6.25;;;;;18.79;67.44;99293.88;4975371;28;45386;-73
2022/05/23 05:12:32;;;;;;;;;7.50;7.50;;;;;18.77;67.84;99281.72;4973439;28;47422;-71
2022/05/23 05:14:59;;;;;;;;;10.00;6.25;;;;;18.74;67.78;99266.84;4973563;28;45348;-72
2022/05/23 05:17:25;;;;;;;;;9.50;8.75;;;;;18.69;67.68;99269.13;4973312;28;45436;-71
2022/05/23 05:19:50;;;;;;;;;11.00;10.50;;;;;18.65;67.91;99265.06;4975224;28;45437;-72
2022/05/23 05:22:16;;;;;;;;;7.50;7.50;;;;;18.58;67.82;99269.28;4975171;28;46102;-70
2022/05/23 05:24:41;;;;;;;;;9.25;7.50;;;;;18.60;67.91;99283.31;4975772;28;45348;-71
2022/05/23 05:27:09;;;;;;;;;8.50;8.50;;;;;18.63;67.72;99277.69;4974621;28;45230;-72
2022/05/23 05:29:35;;;;;;;;;7.50;7.50;;;;;18.63;68.06;99273.22;4972768;28;45370;-70
2022/05/23 05:32:08;;;;;;;;;10.00;9.00;;;;;18.73;68.33;99254.50;4972634;28;45396;-72
2022/05/23 05:34:43;;;;;;;;;10.50;10.25;;;;;18.78;67.83;99260.25;4971953;28;45337;-72
2022/05/23 05:37:39;;;;;;;;;9.75;8.00;;;;;18.80;67.39;99263.59;4973190;28;45375;-72
2022/05/23 05:40:07;;;;;;;;;8.50;8.50;;;;;18.87;67.37;99271.84;4972160;28;45485;-72
2022/05/23 05:42:38;;;;;;;;;12.75;11.00;;;;;18.97;67.79;99286.00;4973895;28;46450;-71
2022/05/23 05:45:10;;;;;;;;;9.25;9.25;;;;;19.06;67.63;99289.56;4974718;28;45427;-70
2022/05/23 05:47:38;;;;;;;;;8.50;8.00;;;;;19.14;67.51;99294.19;4973103;28;45322;-73
2022/05/23 05:50:12;;;;;;;;;12.75;12.50;;;;;19.31;67.57;99294.34;4973807;28;45310;-71
2022/05/23 05:52:39;;;;;;;;;12.75;11.75;;;;;19.45;67.22;99283.16;4973166;28;45365;-71
2022/05/23 05:55:07;;;;;;;;;7.50;7.50;;;;;19.66;67.00;99282.06;4973272;28;45497;-70
2022/05/23 05:57:33;;;;;;;;;11.50;10.75;;;;;19.81;66.47;99279.69;4973732;28;45272;-71
2022/05/23 05:59:58;;;;;;;;;11.25;10.00;;;;;19.95;65.91;99270.31;4976566;28;45232;-74
2022/05/23 06:02:23;;;;;;;;;9.50;8.00;;;;;20.14;65.48;99266.63;4975133;28;45359;-72
2022/05/23 06:04:49;;;;;;;;;9.25;6.75;;;;;20.31;65.02;99272.09;4977561;28;45222;-73
2022/05/23 06:12:49;;;;;;;;;10.50;9.50;;;;;20.74;63.83;99283.69;4973886;28;45743;-69
2022/05/23 06:15:14;;;;;;;;;10.00;9.00;;;;;20.65;63.36;99284.63;4973737;28;45439;-69
2022/05/23 06:17:44;;;;;;;;;11.75;10.50;;;;;20.57;63.89;99288.09;4974302;28;45793;-72
2022/05/23 06:20:11;;;;;;;;;13.25;9.50;;;;;20.48;63.66;99295.22;4972462;28;45186;-73
2022/05/23 06:22:37;;;;;;;;;12.75;9.75;;;;;20.35;63.24;99298.31;4953294;28;45829;-72
2022/05/23 06:25:02;;;;;;;;;15.25;11.25;;;;;20.28;63.85;99295.44;4952892;28;45512;-72
2022/05/23 06:27:29;;;;;;;;;10.50;10.00;;;;;20.24;64.38;99283.41;4970738;28;45456;-72
2022/05/23 06:29:55;;;;;;;;;10.25;10.00;;;;;20.17;64.50;99274.34;4971183;28;45534;-74
2022/05/23 06:32:21;;;;;;;;;12.75;12.75;;;;;20.18;64.56;99261.81;4972200;28;45386;-70
2022/05/23 06:34:46;;;;;;;;;13.75;10.50;;;;;20.18;64.58;99259.16;4972363;28;45488;-75
2022/05/23 06:37:12;;;;;;;;;10.50;10.50;;;;;20.16;64.71;99243.31;4971861;28;45421;-71
2022/05/23 06:39:37;;;;;;;;;14.50;11.75;;;;;20.17;65.01;99244.13;4987993;28;45342;-69
2022/05/23 06:42:03;;;;;;;;;9.25;9.25;;;;;20.10;65.08;99234.06;4972522;28;46229;-73
2022/05/23 06:44:28;;;;;;;;;10.50;9.50;;;;;20.10;65.26;99228.72;4964270;28;45328;-70
2022/05/23 06:46:54;;;;;;;;;10.00;9.75;;;;;20.11;65.13;99235.75;4969254;28;45189;-72
2022/05/23 06:49:19;;;;;;;;;7.75;6.50;;;;;20.16;65.45;99226.44;4971866;28;45572;-68
2022/05/23 06:51:49;;;;;;;;;9.25;8.00;;;;;20.14;65.34;99230.09;4969892;28;47116;-69
2022/05/23 06:54:15;;;;;;;;;9.00;9.00;;;;;20.20;65.46;99238.47;4973291;28;45483;-72
2022/05/23 06:56:42;;;;;;;;;10.75;8.75;;;;;20.24;65.50;99242.50;4970636;28;45462;-70
2022/05/23 06:59:09;;;;;;;;;10.00;10.00;;;;;20.23;65.34;99224.81;4972493;28;45240;-70
2022/05/23 07:01:35;;;;;;;;;6.00;6.00;;;;;20.29;65.38;99233.03;4961711;28;46200;-75
2022/05/23 07:04:01;;;;;;;;;10.75;9.50;;;;;20.32;66.03;99231.03;4964622;28;45479;-72
2022/05/23 07:14:38;;;;;;;;;9.75;9.00;;;;;20.32;65.57;99210.50;4970763;28;45181;-73
2022/05/23 07:17:05;;;;;;;;;14.00;12.50;;;;;20.38;65.72;99228.56;4954182;28;45296;-73
2022/05/23 07:19:30;;;;;;;;;17.75;14.75;;;;;20.42;66.05;99231.75;4991983;28;45227;-73
2022/05/23 07:21:59;;;;;;;;;10.75;8.25;;;;;20.40;65.55;99228.41;4963397;28;45521;-69
2022/05/23 07:24:25;;;;;;;;;12.50;11.00;;;;;20.40;65.91;99236.44;4961820;28;45480;-69
2022/05/23 07:26:51;;;;;;;;;12.00;11.50;;;;;20.43;65.92;99233.44;4978601;28;45363;-71
2022/05/23 07:29:17;;;;;;;;;11.00;11.00;;;;;20.48;66.13;99228.47;4974255;28;45604;-71
2022/05/23 07:31:42;;;;;;;;;18.50;16.00;;;;;20.57;65.81;99240.84;4976659;28;45998;-71
2022/05/23 07:34:07;;;;;;;;;16.50;13.50;;;;;20.61;65.29;99240.53;4977606;28;45182;-71
2022/05/23 07:36:33;;;;;;;;;12.00;12.00;;;;;20.61;65.61;99240.53;4975865;28;45433;-70
2022/05/23 07:38:58;;;;;;;;;14.25;11.75;;;;;20.63;65.14;99239.34;4974373;28;45533;-71
2022/05/23 07:41:24;;;;;;;;;13.00;11.50;;;;;20.58;65.41;99228.31;4975698;28;46214;-69
2022/05/23 07:43:49;;;;;;;;;12.00;10.50;;;;;20.63;65.54;99241.22;4972418;28;45301;-71
2022/05/23 07:46:15;;;;;;;;;11.50;11.50;;;;;20.65;65.63;99241.88;4974439;28;45202;-70
2022/05/23 07:48:41;;;;;;;;;11.50;10.00;;;;;20.60;65.62;99236.19;4974618;28;45570;-71
2022/05/23 07:51:09;;;;;;;;;15.00;14.00;;;;;20.52;66.07;99202.25;4973980;28;46955;-72
2022/05/23 08:01:48;;;;;;;;;12.25;12.25;;;;;22.59;62.57;99162.22;4975186;28;45818;-70
2022/05/23 08:04:13;;;;;;;;;13.75;12.00;;;;;22.85;61.29;99155.72;4974053;28;45584;-71
2022/05/23 08:06:39;;;;;;;;;16.50;15.00;;;;;23.10;61.33;99172.47;4974991;28;45314;-71
2022/05/23 08:09:04;;;;;;;;;14.00;12.00;;;;;23.30;61.13;99172.03;4974895;28;45409;-70
2022/05/23 08:11:30;;;;;;;;;12.00;12.00;;;;;23.33;60.69;99174.38;4973998;28;45929;-70
2022/05/23 08:13:57;;;;;;;;;13.25;10.50;;;;;23.34;59.90;99176.88;4973826;28;45310;-70
2022/05/23 08:16:23;;;;;;;;;17.00;15.25;;;;;23.33;60.52;99167.16;4974202;28;45315;-71
2022/05/23 08:18:49;;;;;;;;;17.00;14.25;;;;;23.40;61.03;99178.00;4974152;28;45595;-70
2022/05/23 08:21:15;;;;;;;;;19.50;18.50;;;;;23.44;60.89;99173.97;4974382;28;45419;-71
2022/05/23 08:23:41;;;;;;;;;19.00;16.50;;;;;23.37;61.45;99167.66;4973739;28;45170;-70
2022/05/23 08:26:07;;;;;;;;;19.00;16.00;;;;;23.23;61.70;99187.13;4973860;28;45182;-70
2022/05/23 08:28:32;;;;;;;;;16.50;16.50;;;;;22.93;62.44;99198.56;4973253;28;45433;-68
2022/05/23 08:30:58;;;;;;;;;17.25;16.00;;;;;22.64;62.76;99202.72;4973582;28;45348;-70
2022/05/23 08:33:23;;;;;;;;;14.25;13.75;;;;;22.30;63.91;99206.50;4974113;28;45402;-69
2022/05/23 08:35:49;;;;;;;;;13.50;13.50;;;;;22.04;64.68;99200.34;4973559;28;45560;-71
2022/05/23 08:38:14;;;;;;;;;21.25;14.75;;;;;21.89;64.78;99202.03;4974179;28;45277;-71
2022/05/23 08:41:01;;;;;;;;;14.00;14.00;;;;;21.66;65.98;99200.06;4973330;28;45386;-70
2022/05/23 08:43:36;;;;;;;;;14.25;14.25;;;;;21.58;66.17;99194.69;4973862;28;45333;-72
2022/05/23 08:46:02;;;;;;;;;16.50;16.50;;;;;21.54;66.28;99185.31;4973490;28;45370;-71
2022/05/23 08:48:43;;;;;;;;;16.50;14.00;;;;;21.52;66.09;99193.50;4974356;28;45524;-71
2022/05/23 08:51:37;;;;;;;;;11.25;11.25;;;;;21.38;65.69;99192.34;4976754;28;45425;-72
2022/05/23 08:54:20;;;;;;;;;14.00;12.50;;;;;21.28;65.44;99199.69;4976160;28;45566;-70
2022/05/23 08:56:52;;;;;;;;;13.00;12.00;;;;;21.09;65.50;99206.97;4973113;28;45347;-70
2022/05/23 08:59:26;;;;;;;;;19.50;19.50;;;;;20.97;66.53;99205.63;4972350;28;45312;-69
2022/05/23 09:02:08;;;;;;;;;16.00;13.25;;;;;20.79;65.96;99211.09;4971629;28;47300;-69
2022/05/23 09:04:44;;;;;;;;;8.25;8.25;;;;;20.68;65.92;99206.84;4972683;28;45491;-69
2022/05/23 09:07:42;;;;;;;;;12.00;11.25;;;;;20.56;66.36;99204.44;4973562;28;45294;-70
2022/05/23 09:10:28;;;;;;;;;11.50;11.50;;;;;20.42;66.60;99210.41;4959028;28;45310;-71
2022/05/23 09:12:53;;;;;;;;;18.25;16.25;;;;;20.35;66.12;99212.03;4973767;28;45186;-70
2022/05/23 09:15:20;;;;;;;;;9.25;9.00;;;;;20.25;66.76;99218.31;4974252;28;45219;-70
2022/05/23 09:17:52;;;;;;;;;17.75;16.75;;;;;20.16;67.10;99213.94;4974718;28;45365;-71
2022/05/23 09:20:42;;;;;;;;;13.75;13.75;;;;;20.13;66.84;99219.56;4975160;28;45467;-70
2022/05/23 09:23:12;;;;;;;;;15.50;15.50;;;;;20.13;66.41;99214.22;4973895;28;45325;-69
2022/05/23 09:25:38;;;;;;;;;14.75;14.00;;;;;20.17;66.10;99201.41;4972503;28;45890;-71
2022/05/23 09:28:04;;;;;;;;;18.50;15.50;;;;;20.36;66.31;99206.53;4973987;28;45313;-70
2022/05/23 09:30:30;;;;;;;;;15.50;15.00;;;;;20.51;65.28;99204.09;4974334;28;45256;-72
2022/05/23 09:33:07;;;;;;;;;15.00;14.25;;;;;20.60;65.75;99206.81;4979182;28;45982;-71
2022/05/23 09:35:41;;;;;;;;;16.75;13.75;;;;;20.72;65.21;99211.72;4973647;28;45597;-71
2022/05/23 09:38:22;;;;;;;;;13.75;12.50;;;;;20.77;64.19;99199.69;4973322;28;45323;-71
2022/05/23 09:40:49;;;;;;;;;17.00;17.00;;;;;20.80;64.23;99210.09;4973031;28;45488;-70
2022/05/23 09:49:23;;;;;;;;;17.25;16.25;;;;;21.04;62.85;99195.13;5008392;28;45528;-69
2022/05/23 09:52:16;;;;;;;;;18.75;15.75;;;;;21.21;62.56;99198.69;4973540;28;45403;-67
2022/05/23 09:54:46;;;;;;;;;16.50;15.75;;;;;21.31;62.18;99181.47;4973129;28;46316;-71
2022/05/23 09:57:23;;;;;;;;;20.00;17.75;;;;;21.60;61.64;99185.47;4973602;28;45335;-73
2022/05/23 09:59:56;;;;;;;;;18.50;17.00;;;;;21.68;61.26;99189.19;4972802;28;45362;-71
2022/05/23 10:02:38;;;;;;;;;17.25;17.25;;;;;21.69;60.98;99188.16;4972991;28;45499;-70
2022/05/23 10:05:20;;;;;;;;;17.50;17.50;;;;;21.62;61.05;99196.03;4973065;28;46395;-72
2022/05/23 10:07:50;;;;;;;;;20.00;18.75;;;;;21.51;61.02;99191.00;4973334;28;45413;-70
2022/05/23 10:10:24;;;;;;;;;25.50;22.50;;;;;21.36;60.91;99193.50;4974103;28;45349;-73
2022/05/23 10:12:51;;;;;;;;;29.50;24.00;;;;;21.30;61.29;99187.81;4973615;28;45561;-72
2022/05/23 10:15:28;;;;;;;;;23.00;20.00;;;;;21.27;61.12;99195.34;4973512;28;46195;-72
2022/05/23 10:18:07;;;;;;;;;29.00;27.50;;;;;21.12;60.25;99184.44;4970344;28;45452;-70
2022/05/23 10:20:40;;;;;;;;;21.25;19.25;;;;;21.00;61.04;99191.94;4973120;28;45279;-70
2022/05/23 10:23:14;;;;;;;;;18.50;17.00;;;;;20.89;61.42;99194.91;4971984;28;45374;-71
2022/05/23 10:25:52;;;;;;;;;26.50;25.00;;;;;20.84;61.67;99198.91;4970409;28;47388;-68
2022/05/23 10:28:34;;;;;;;;;25.00;25.00;;;;;20.76;61.18;99185.50;4972532;28;45481;-71
2022/05/23 10:31:15;;;;;;;;;26.00;26.00;;;;;20.67;60.91;99184.59;4973144;28;45380;-69
2022/05/23 10:33:46;;;;;;;;;22.75;22.00;;;;;20.71;61.53;99195.81;4972854;28;45394;-70
2022/05/23 10:36:24;;;;;;;;;24.00;22.50;;;;;20.68;61.49;99194.34;4973442;28;45351;-70
2022/05/23 10:42:07;;;;;;;;;25.00;23.00;;;;;20.63;61.10;99196.63;4971799;28;45295;-69
2022/05/23 10:44:47;;;;;;;;;27.50;25.50;;;;;20.58;62.00;99193.59;4973244;28;45330;-69
2022/05/23 10:47:30;;;;;;;;;25.50;25.50;;;;;20.51;62.81;99193.41;4972375;28;46182;-70
2022/05/23 10:50:02;;;;;;;;;23.00;23.00;;;;;20.42;62.36;99195.19;4971832;28;45470;-71
2022/05/23 10:53:10;;;;;;;;;29.00;26.75;;;;;20.30;63.14;99193.81;4975354;28;45367;-70
2022/05/23 10:55:57;;;;;;;;;32.25;29.00;;;;;20.25;63.83;99191.63;4912305;28;45378;-71
2022/05/23 10:58:42;;;;;;;;;29.75;29.00;;;;;20.24;64.19;99181.94;4975100;28;46303;-71
2022/05/23 11:01:26;;;;;;;;;35.50;28.25;;;;;20.22;64.66;99178.59;4973321;28;45445;-71
2022/05/23 11:03:59;;;;;;;;;23.50;23.50;;;;;20.18;64.50;99176.38;4976443;28;45255;-70
2022/05/23 11:06:51;;;;;;;;;24.50;24.00;;;;;20.12;65.14;99177.84;4978299;28;45444;-69
2022/05/23 11:09:28;;;;;;;;;31.75;27.25;;;;;20.07;64.56;99180.16;4952075;28;45528;-71
2022/05/23 11:12:13;;;;;;;;;35.25;31.50;;;;;19.91;65.60;99196.91;4974713;28;45272;-70
2022/05/23 11:15:17;;;;;;;;;32.25;28.00;;;;;19.77;66.37;99217.81;4975242;28;45422;-71
2022/05/23 11:18:01;;;;;;;;;32.00;30.00;;;;;19.58;67.81;99197.47;4975466;28;45216;-70
2022/05/23 11:20:37;;;;;;;;;36.50;33.00;;;;;19.48;69.15;99186.03;4974534;28;46204;-72
2022/05/23 11:23:22;;;;;;;;;40.75;35.00;;;;;18.95;73.90;99180.50;4975210;28;45438;-72
2022/05/23 11:25:54;;;;;;;;;34.75;32.75;;;;;18.58;74.58;99190.25;4975662;28;45270;-70
2022/05/23 11:34:34;;;;;;;;;44.75;39.00;;;;;17.83;79.55;99190.19;4975254;28;45392;-71
2022/05/23 11:37:45;;;;;;;;;41.75;36.00;;;;;17.62;79.66;99199.19;4976197;28;45274;-71
2022/05/23 11:40:30;;;;;;;;;43.50;38.00;;;;;17.50;82.75;99203.78;4939490;28;45613;-71
2022/05/23 11:43:05;;;;;;;;;50.50;41.50;;;;;17.60;84.88;99195.81;4972281;28;46328;-70
2022/05/23 11:48:34;;;;;;;;;48.50;39.25;;;;;18.43;81.45;99205.03;4974948;28;45422;-70
2022/05/23 11:51:24;;;;;;;;;46.75;39.25;;;;;18.77;79.72;99199.97;4975065;28;45614;-70
2022/05/23 11:54:13;;;;;;;;;44.00;36.50;;;;;19.11;77.83;99198.53;4974520;28;46170;-71
2022/05/23 11:56:44;;;;;;;;;43.00;36.50;;;;;19.25;75.57;99199.84;4974519;28;45316;-70
2022/05/23 11:59:12;;;;;;;;;38.00;33.25;;;;;19.22;74.09;99208.97;4976046;28;45252;-69
2022/05/23 12:01:38;;;;;;;;;35.75;33.00;;;;;19.08;74.28;99209.50;4959632;28;45287;-69
2022/05/23 12:04:03;;;;;;;;;42.50;36.00;;;;;18.95;74.96;99210.66;4974999;28;46436;-71
2022/05/23 12:06:28;;;;;;;;;35.50;32.75;;;;;18.82;74.13;99207.53;4975050;28;45259;-70
2022/05/23 12:09:16;;;;;;;;;33.25;32.00;;;;;18.68;74.55;99206.19;4974919;28;45347;-71
2022/05/23 12:11:51;;;;;;;;;27.25;27.25;;;;;18.47;74.70;99203.75;4962976;27;46107;-74
2022/05/23 12:14:42;;;;;;;;;31.50;30.00;;;;;18.39;75.16;99212.47;4974115;28;46346;-72
2022/05/23 12:17:26;;;;;;;;;31.50;30.75;;;;;18.28;75.31;99221.47;4970648;28;45254;-71
2022/05/23 12:19:56;;;;;;;;;30.50;28.75;;;;;18.17;76.43;99219.84;4974045;28;45322;-69
2022/05/23 12:22:37;;;;;;;;;22.50;22.50;;;;;17.89;76.84;99194.94;4974832;28;45319;-70
2022/05/23 12:25:08;;;;;;;;;33.50;28.50;;;;;18.04;77.08;99224.63;4973744;28;46276;-72
2022/05/23 12:27:43;;;;;;;;;33.50;31.00;;;;;17.98;76.99;99220.69;4974330;28;45426;-71
2022/05/23 12:30:17;;;;;;;;;28.00;27.00;;;;;17.98;78.46;99233.13;4974484;28;45372;-73
2022/05/23 12:32:47;;;;;;;;;28.50;28.50;;;;;17.87;75.84;99237.63;4973762;28;45549;-73
2022/05/23 12:35:15;;;;;;;;;26.75;26.75;;;;;17.81;75.91;99246.16;4973880;28;45382;-72